Aviation Digital Data Service (ADDS)

Output produced by METARs form (0237 UTC 22 July 2017)
found at http://www.aviationweather.gov/adds/metars/
 
FSPP 220200Z 17010KT //// //// 26/24 Q1011
FSIA 220200Z 15014KT 9999 FEW009 SCT015 26/24 Q1010 NOSIG
TAF FSIA 212303Z 2200/2224 15010G20KT 9999 SCT017 
     TEMPO 2200/2212 8000 -SHRA BKN015 PRO40 
     TEMPO 2205/2208 5000 SHRA FEW012 BKN014